sensor_id;sensor_type;location;lat;lon;timestamp;temperature;humidity
55026;DHT22;40925;45.666;18.994;2023-05-07T00:01:43;410.10;2355.20
55026;DHT22;40925;45.666;18.994;2023-05-07T00:04:09;410.20;2355.20
55026;DHT22;40925;45.666;18.994;2023-05-07T00:06:35;410.20;2355.20
55026;DHT22;40925;45.666;18.994;2023-05-07T00:09:01;410.20;2355.20
55026;DHT22;40925;45.666;18.994;2023-05-07T00:12:04;410.10;2355.20
55026;DHT22;40925;45.666;18.994;2023-05-07T00:14:29;410.10;2355.20
55026;DHT22;40925;45.666;18.994;2023-05-07T00:16:55;410.10;2355.20
55026;DHT22;40925;45.666;18.994;2023-05-07T00:19:21;410.10;2355.20
55026;DHT22;40925;45.666;18.994;2023-05-07T00:21:46;410.10;2355.20
55026;DHT22;40925;45.666;18.994;2023-05-07T00:24:12;410.10;2355.20
55026;DHT22;40925;45.666;18.994;2023-05-07T00:26:38;409.90;2355.20
55026;DHT22;40925;45.666;18.994;2023-05-07T00:43:40;410.10;2355.20
55026;DHT22;40925;45.666;18.994;2023-05-07T00:46:06;409.90;2355.20
55026;DHT22;40925;45.666;18.994;2023-05-07T00:48:32;409.70;2355.20
55026;DHT22;40925;45.666;18.994;2023-05-07T00:50:57;409.60;2355.20
55026;DHT22;40925;45.666;18.994;2023-05-07T00:53:23;384.90;2329.60
55026;DHT22;40925;45.666;18.994;2023-05-07T00:55:50;409.60;2355.20
55026;DHT22;40925;45.666;18.994;2023-05-07T00:58:16;384.90;2329.60
55026;DHT22;40925;45.666;18.994;2023-05-07T01:00:41;384.70;2329.60
55026;DHT22;40925;45.666;18.994;2023-05-07T01:03:07;384.60;2329.60
55026;DHT22;40925;45.666;18.994;2023-05-07T01:05:33;384.60;2329.60
55026;DHT22;40925;45.666;18.994;2023-05-07T01:07:59;384.50;2329.60
55026;DHT22;40925;45.666;18.994;2023-05-07T01:10:26;384.50;2329.60
55026;DHT22;40925;45.666;18.994;2023-05-07T01:12:52;384.30;2329.60
55026;DHT22;40925;45.666;18.994;2023-05-07T01:15:19;384.30;2329.60
55026;DHT22;40925;45.666;18.994;2023-05-07T01:17:45;384.30;2329.60
55026;DHT22;40925;45.666;18.994;2023-05-07T01:20:11;384.30;2329.60
55026;DHT22;40925;45.666;18.994;2023-05-07T01:22:38;384.60;2329.60
55026;DHT22;40925;45.666;18.994;2023-05-07T01:25:05;384.20;2329.60
55026;DHT22;40925;45.666;18.994;2023-05-07T01:27:31;384.30;2329.60
55026;DHT22;40925;45.666;18.994;2023-05-07T01:29:58;384.30;2329.60
55026;DHT22;40925;45.666;18.994;2023-05-07T01:32:32;384.30;2329.60
55026;DHT22;40925;45.666;18.994;2023-05-07T01:35:00;384.20;2329.60
55026;DHT22;40925;45.666;18.994;2023-05-07T01:37:26;384.20;2329.60
55026;DHT22;40925;45.666;18.994;2023-05-07T01:39:53;384.20;2329.60
55026;DHT22;40925;45.666;18.994;2023-05-07T01:42:19;384.20;2329.60
55026;DHT22;40925;45.666;18.994;2023-05-07T01:44:45;384.20;2329.60
55026;DHT22;40925;45.666;18.994;2023-05-07T01:47:12;384.20;2329.60
55026;DHT22;40925;45.666;18.994;2023-05-07T01:49:39;384.20;2329.60
55026;DHT22;40925;45.666;18.994;2023-05-07T01:52:05;384.30;2329.60
55026;DHT22;40925;45.666;18.994;2023-05-07T01:54:31;384.20;2329.60
55026;DHT22;40925;45.666;18.994;2023-05-07T01:56:57;384.20;2329.60
55026;DHT22;40925;45.666;18.994;2023-05-07T01:59:23;384.10;2329.60
55026;DHT22;40925;45.666;18.994;2023-05-07T02:01:48;384.00;2329.60
55026;DHT22;40925;45.666;18.994;2023-05-07T02:04:14;384.20;2329.60
55026;DHT22;40925;45.666;18.994;2023-05-07T02:14:00;384.10;2329.60
55026;DHT22;40925;45.666;18.994;2023-05-07T02:16:26;359.20;2329.60
55026;DHT22;40925;45.666;18.994;2023-05-07T02:18:51;359.10;2329.60
55026;DHT22;40925;45.666;18.994;2023-05-07T02:21:17;359.10;2329.60
55026;DHT22;40925;45.666;18.994;2023-05-07T02:23:43;359.10;2329.60
55026;DHT22;40925;45.666;18.994;2023-05-07T02:26:09;359.10;2329.60
55026;DHT22;40925;45.666;18.994;2023-05-07T02:28:35;359.10;2329.60
55026;DHT22;40925;45.666;18.994;2023-05-07T02:31:04;359.10;2329.60
55026;DHT22;40925;45.666;18.994;2023-05-07T02:33:30;359.00;2329.60
55026;DHT22;40925;45.666;18.994;2023-05-07T02:35:56;359.10;2329.60
55026;DHT22;40925;45.666;18.994;2023-05-07T04:54:59;384.20;2329.60
55026;DHT22;40925;45.666;18.994;2023-05-07T04:57:27;384.30;2329.60
55026;DHT22;40925;45.666;18.994;2023-05-07T04:59:53;384.00;2329.60
55026;DHT22;40925;45.666;18.994;2023-05-07T05:02:19;384.00;2329.60
55026;DHT22;40925;45.666;18.994;2023-05-07T05:04:45;384.40;2329.60
55026;DHT22;40925;45.666;18.994;2023-05-07T05:07:11;384.30;2329.60
55026;DHT22;40925;45.666;18.994;2023-05-07T05:09:36;384.40;2329.60
55026;DHT22;40925;45.666;18.994;2023-05-07T05:12:02;384.50;2329.60
55026;DHT22;40925;45.666;18.994;2023-05-07T05:14:29;384.60;2329.60
55026;DHT22;40925;45.666;18.994;2023-05-07T05:16:54;384.60;2329.60
55026;DHT22;40925;45.666;18.994;2023-05-07T05:19:20;384.70;2329.60
55026;DHT22;40925;45.666;18.994;2023-05-07T05:21:46;384.80;2329.60
55026;DHT22;40925;45.666;18.994;2023-05-07T05:24:12;384.90;2329.60
55026;DHT22;40925;45.666;18.994;2023-05-07T05:26:37;409.60;2355.20
55026;DHT22;40925;45.666;18.994;2023-05-07T05:29:03;409.80;2355.20
55026;DHT22;40925;45.666;18.994;2023-05-07T05:31:29;409.80;2355.20
55026;DHT22;40925;45.666;18.994;2023-05-07T05:33:55;409.80;2355.20
55026;DHT22;40925;45.666;18.994;2023-05-07T05:36:20;409.90;2355.20
55026;DHT22;40925;45.666;18.994;2023-05-07T05:38:46;410.20;2355.20
55026;DHT22;40925;45.666;18.994;2023-05-07T05:41:12;410.50;2355.20
55026;DHT22;40925;45.666;18.994;2023-05-07T05:43:37;435.20;2355.20
55026;DHT22;40925;45.666;18.994;2023-05-07T05:46:03;435.50;2355.20
55026;DHT22;40925;45.666;18.994;2023-05-07T05:48:30;435.50;2355.20
55026;DHT22;40925;45.666;18.994;2023-05-07T05:50:56;435.70;2355.20
55026;DHT22;40925;45.666;18.994;2023-05-07T05:53:21;435.80;2355.20
55026;DHT22;40925;45.666;18.994;2023-05-07T05:55:47;435.80;2355.20
55026;DHT22;40925;45.666;18.994;2023-05-07T05:58:13;435.80;2355.20
55026;DHT22;40925;45.666;18.994;2023-05-07T06:00:40;435.80;2355.20
55026;DHT22;40925;45.666;18.994;2023-05-07T06:03:06;435.90;2355.20
55026;DHT22;40925;45.666;18.994;2023-05-07T06:05:32;436.10;2355.20
55026;DHT22;40925;45.666;18.994;2023-05-07T06:07:57;436.10;2355.20
55026;DHT22;40925;45.666;18.994;2023-05-07T06:10:23;436.10;2355.20
55026;DHT22;40925;45.666;18.994;2023-05-07T06:12:49;436.10;2355.20
55026;DHT22;40925;45.666;18.994;2023-05-07T06:15:15;460.80;2380.80
55026;DHT22;40925;45.666;18.994;2023-05-07T06:17:41;461.00;2380.80
55026;DHT22;40925;45.666;18.994;2023-05-07T06:20:07;461.10;2380.80
55026;DHT22;40925;45.666;18.994;2023-05-07T06:22:33;461.20;2380.80
55026;DHT22;40925;45.666;18.994;2023-05-07T06:24:58;461.50;2380.80
55026;DHT22;40925;45.666;18.994;2023-05-07T06:27:43;461.40;2380.80
55026;DHT22;40925;45.666;18.994;2023-05-07T06:30:09;461.60;2380.80
55026;DHT22;40925;45.666;18.994;2023-05-07T06:32:36;461.60;2380.80
55026;DHT22;40925;45.666;18.994;2023-05-07T06:49:38;487.10;2380.80
55026;DHT22;40925;45.666;18.994;2023-05-07T06:52:04;487.00;2380.80
55026;DHT22;40925;45.666;18.994;2023-05-07T06:54:30;487.00;2380.80
55026;DHT22;40925;45.666;18.994;2023-05-07T07:01:48;512.10;2380.80
55026;DHT22;40925;45.666;18.994;2023-05-07T07:23:43;538.30;2278.40
55026;DHT22;40925;45.666;18.994;2023-05-07T07:28:35;563.30;2304.00
55026;DHT22;40925;45.666;18.994;2023-05-07T07:35:59;563.40;2176.00
55026;DHT22;40925;45.666;18.994;2023-05-07T07:38:24;563.50;2150.40
55026;DHT22;40925;45.666;18.994;2023-05-07T07:40:50;563.20;2176.00
55026;DHT22;40925;45.666;18.994;2023-05-07T07:50:34;589.30;2022.40
55026;DHT22;40925;45.666;18.994;2023-05-07T08:17:43;615.30;1766.40
55026;DHT22;40925;45.666;18.994;2023-05-07T08:22:35;614.70;1817.60
55026;DHT22;40925;45.666;18.994;2023-05-07T08:25:02;614.60;1817.60
55026;DHT22;40925;45.666;18.994;2023-05-07T08:27:27;614.70;1843.20
55026;DHT22;40925;45.666;18.994;2023-05-07T08:29:53;614.40;1894.40
55026;DHT22;40925;45.666;18.994;2023-05-07T08:49:28;614.80;1843.20
55026;DHT22;40925;45.666;18.994;2023-05-07T08:51:53;614.40;1843.20
55026;DHT22;40925;45.666;18.994;2023-05-07T08:54:21;614.70;1792.00
55026;DHT22;40925;45.666;18.994;2023-05-07T08:56:47;614.90;1715.20
55026;DHT22;40925;45.666;18.994;2023-05-07T08:59:13;615.10;1689.60
55026;DHT22;40925;45.666;18.994;2023-05-07T09:01:39;640.40;1638.40
55026;DHT22;40925;45.666;18.994;2023-05-07T09:04:05;640.10;1587.20
55026;DHT22;40925;45.666;18.994;2023-05-07T09:06:33;640.80;1536.00
55026;DHT22;40925;45.666;18.994;2023-05-07T09:09:03;665.80;1561.60
55026;DHT22;40925;45.666;18.994;2023-05-07T09:11:30;666.10;1561.60
55026;DHT22;40925;45.666;18.994;2023-05-07T09:13:57;665.60;1510.40
55026;DHT22;40925;45.666;18.994;2023-05-07T09:16:28;665.60;1484.80
55026;DHT22;40925;45.666;18.994;2023-05-07T09:18:54;640.40;1484.80
55026;DHT22;40925;45.666;18.994;2023-05-07T09:21:21;640.50;1459.20
55026;DHT22;40925;45.666;18.994;2023-05-07T09:23:52;640.70;1459.20
55026;DHT22;40925;45.666;18.994;2023-05-07T09:26:33;640.90;1382.40
55026;DHT22;40925;45.666;18.994;2023-05-07T09:29:00;666.10;1408.00
55026;DHT22;40925;45.666;18.994;2023-05-07T09:31:26;666.10;1459.20
55026;DHT22;40925;45.666;18.994;2023-05-07T09:33:52;665.90;1459.20
55026;DHT22;40925;45.666;18.994;2023-05-07T09:36:18;666.20;1459.20
55026;DHT22;40925;45.666;18.994;2023-05-07T09:38:45;666.20;1433.60
55026;DHT22;40925;45.666;18.994;2023-05-07T09:41:12;691.50;1408.00
55026;DHT22;40925;45.666;18.994;2023-05-07T09:43:39;691.70;1408.00
55026;DHT22;40925;45.666;18.994;2023-05-07T09:46:12;716.90;1433.60
55026;DHT22;40925;45.666;18.994;2023-05-07T09:48:39;716.90;1382.40
55026;DHT22;40925;45.666;18.994;2023-05-07T09:53:53;692.00;1433.60
55026;DHT22;40925;45.666;18.994;2023-05-07T09:56:19;691.70;1408.00
55026;DHT22;40925;45.666;18.994;2023-05-07T09:58:45;692.00;1356.80
55026;DHT22;40925;45.666;18.994;2023-05-07T10:01:12;692.00;1356.80
55026;DHT22;40925;45.666;18.994;2023-05-07T10:03:40;716.90;1356.80
55026;DHT22;40925;45.666;18.994;2023-05-07T10:06:09;691.70;1356.80
55026;DHT22;40925;45.666;18.994;2023-05-07T10:08:36;692.10;1382.40
55026;DHT22;40925;45.666;18.994;2023-05-07T10:11:04;691.90;1331.20
55026;DHT22;40925;45.666;18.994;2023-05-07T10:13:32;692.10;1382.40
55026;DHT22;40925;45.666;18.994;2023-05-07T10:15:59;717.40;1356.80
55026;DHT22;40925;45.666;18.994;2023-05-07T10:18:25;716.80;1408.00
55026;DHT22;40925;45.666;18.994;2023-05-07T10:21:04;692.10;1382.40
55026;DHT22;40925;45.666;18.994;2023-05-07T10:23:33;692.00;1356.80
55026;DHT22;40925;45.666;18.994;2023-05-07T10:26:03;717.10;1382.40
55026;DHT22;40925;45.666;18.994;2023-05-07T10:28:34;717.60;1331.20
55026;DHT22;40925;45.666;18.994;2023-05-07T10:33:45;717.70;1331.20
55026;DHT22;40925;45.666;18.994;2023-05-07T10:36:12;742.80;1356.80
55026;DHT22;40925;45.666;18.994;2023-05-07T10:38:38;743.00;1254.40
55026;DHT22;40925;45.666;18.994;2023-05-07T10:41:06;743.10;1228.80
55026;DHT22;40925;45.666;18.994;2023-05-07T10:43:42;768.10;1228.80
55026;DHT22;40925;45.666;18.994;2023-05-07T10:46:29;768.60;1203.20
55026;DHT22;40925;45.666;18.994;2023-05-07T10:51:27;768.80;1228.80
55026;DHT22;40925;45.666;18.994;2023-05-07T10:56:41;768.60;1177.60
55026;DHT22;40925;45.666;18.994;2023-05-07T11:01:54;768.50;1177.60
55026;DHT22;40925;45.666;18.994;2023-05-07T11:04:21;743.30;1203.20
55026;DHT22;40925;45.666;18.994;2023-05-07T11:15:07;743.00;1254.40
55026;DHT22;40925;45.666;18.994;2023-05-07T11:17:34;742.70;1331.20
55026;DHT22;40925;45.666;18.994;2023-05-07T11:20:01;742.90;1280.00
55026;DHT22;40925;45.666;18.994;2023-05-07T11:25:00;742.80;1254.40
55026;DHT22;40925;45.666;18.994;2023-05-07T11:27:26;742.60;1254.40
55026;DHT22;40925;45.666;18.994;2023-05-07T11:29:52;742.90;1254.40
55026;DHT22;40925;45.666;18.994;2023-05-07T11:32:29;742.60;1280.00
55026;DHT22;40925;45.666;18.994;2023-05-07T11:34:56;742.80;1305.60
55026;DHT22;40925;45.666;18.994;2023-05-07T11:37:23;717.40;1305.60
55026;DHT22;40925;45.666;18.994;2023-05-07T11:39:49;717.30;1356.80
55026;DHT22;40925;45.666;18.994;2023-05-07T11:42:36;717.00;1356.80
55026;DHT22;40925;45.666;18.994;2023-05-07T11:45:03;742.60;1382.40
55026;DHT22;40925;45.666;18.994;2023-05-07T11:47:33;743.20;1305.60
55026;DHT22;40925;45.666;18.994;2023-05-07T11:50:08;768.20;1305.60
55026;DHT22;40925;45.666;18.994;2023-05-07T11:52:35;768.00;1280.00
55026;DHT22;40925;45.666;18.994;2023-05-07T11:55:02;743.30;1280.00
55026;DHT22;40925;45.666;18.994;2023-05-07T11:57:29;743.20;1305.60
55026;DHT22;40925;45.666;18.994;2023-05-07T11:59:59;768.30;1280.00
55026;DHT22;40925;45.666;18.994;2023-05-07T12:02:27;768.30;1280.00
55026;DHT22;40925;45.666;18.994;2023-05-07T12:04:54;768.50;1356.80
55026;DHT22;40925;45.666;18.994;2023-05-07T12:07:20;793.60;1280.00
55026;DHT22;40925;45.666;18.994;2023-05-07T12:09:46;768.90;1228.80
55026;DHT22;40925;45.666;18.994;2023-05-07T12:12:14;793.60;1254.40
55026;DHT22;40925;45.666;18.994;2023-05-07T12:14:42;793.90;1228.80
55026;DHT22;40925;45.666;18.994;2023-05-07T12:17:08;794.10;1228.80
55026;DHT22;40925;45.666;18.994;2023-05-07T12:19:35;794.40;1177.60
55026;DHT22;40925;45.666;18.994;2023-05-07T12:22:05;794.40;1177.60
55026;DHT22;40925;45.666;18.994;2023-05-07T12:24:48;768.80;1203.20
55026;DHT22;40925;45.666;18.994;2023-05-07T12:27:15;768.30;1203.20
55026;DHT22;40925;45.666;18.994;2023-05-07T12:29:48;768.40;1228.80
55026;DHT22;40925;45.666;18.994;2023-05-07T12:32:18;768.50;1203.20
55026;DHT22;40925;45.666;18.994;2023-05-07T12:34:45;743.00;1254.40
55026;DHT22;40925;45.666;18.994;2023-05-07T12:37:12;742.80;1228.80
55026;DHT22;40925;45.666;18.994;2023-05-07T12:39:43;742.60;1331.20
55026;DHT22;40925;45.666;18.994;2023-05-07T12:42:15;742.80;1280.00
55026;DHT22;40925;45.666;18.994;2023-05-07T12:44:41;742.80;1254.40
55026;DHT22;40925;45.666;18.994;2023-05-07T12:47:10;743.30;1254.40
55026;DHT22;40925;45.666;18.994;2023-05-07T12:49:36;768.30;1254.40
55026;DHT22;40925;45.666;18.994;2023-05-07T12:52:05;793.80;1280.00
55026;DHT22;40925;45.666;18.994;2023-05-07T12:54:33;794.10;1203.20
55026;DHT22;40925;45.666;18.994;2023-05-07T12:57:06;793.90;1177.60
55026;DHT22;40925;45.666;18.994;2023-05-07T12:59:39;793.90;1203.20
55026;DHT22;40925;45.666;18.994;2023-05-07T13:02:06;794.10;1203.20
55026;DHT22;40925;45.666;18.994;2023-05-07T13:04:32;794.40;1177.60
55026;DHT22;40925;45.666;18.994;2023-05-07T13:06:58;794.40;1126.40
55026;DHT22;40925;45.666;18.994;2023-05-07T13:09:24;819.30;1126.40
55026;DHT22;40925;45.666;18.994;2023-05-07T13:11:50;819.20;1126.40
55026;DHT22;40925;45.666;18.994;2023-05-07T13:14:16;793.90;1152.00
55026;DHT22;40925;45.666;18.994;2023-05-07T13:16:42;794.30;1152.00
55026;DHT22;40925;45.666;18.994;2023-05-07T13:19:08;794.40;1152.00
55026;DHT22;40925;45.666;18.994;2023-05-07T13:21:33;794.40;1152.00
55026;DHT22;40925;45.666;18.994;2023-05-07T13:23:59;794.40;1126.40
55026;DHT22;40925;45.666;18.994;2023-05-07T13:26:25;768.20;1152.00
55026;DHT22;40925;45.666;18.994;2023-05-07T13:28:53;743.00;1203.20
55026;DHT22;40925;45.666;18.994;2023-05-07T13:31:19;768.00;1203.20
55026;DHT22;40925;45.666;18.994;2023-05-07T13:33:46;768.50;1152.00
55026;DHT22;40925;45.666;18.994;2023-05-07T13:36:14;793.60;1152.00
55026;DHT22;40925;45.666;18.994;2023-05-07T13:38:40;793.80;1152.00
55026;DHT22;40925;45.666;18.994;2023-05-07T13:41:06;794.10;1152.00
55026;DHT22;40925;45.666;18.994;2023-05-07T13:43:31;794.10;1126.40
55026;DHT22;40925;45.666;18.994;2023-05-07T13:45:59;768.80;1177.60
55026;DHT22;40925;45.666;18.994;2023-05-07T13:48:25;768.00;1152.00
55026;DHT22;40925;45.666;18.994;2023-05-07T13:50:50;743.30;1152.00
55026;DHT22;40925;45.666;18.994;2023-05-07T13:53:17;768.10;1177.60
55026;DHT22;40925;45.666;18.994;2023-05-07T13:55:44;768.00;1152.00
55026;DHT22;40925;45.666;18.994;2023-05-07T13:58:10;768.00;1126.40
55026;DHT22;40925;45.666;18.994;2023-05-07T14:00:36;768.30;1126.40
55026;DHT22;40925;45.666;18.994;2023-05-07T14:03:02;768.60;1126.40
55026;DHT22;40925;45.666;18.994;2023-05-07T14:05:28;793.60;1126.40
55026;DHT22;40925;45.666;18.994;2023-05-07T14:07:55;793.90;1126.40
55026;DHT22;40925;45.666;18.994;2023-05-07T14:10:22;794.20;1126.40
55026;DHT22;40925;45.666;18.994;2023-05-07T14:12:50;794.40;1152.00
55026;DHT22;40925;45.666;18.994;2023-05-07T14:15:16;794.00;1152.00
55026;DHT22;40925;45.666;18.994;2023-05-07T14:17:43;793.80;1126.40
55026;DHT22;40925;45.666;18.994;2023-05-07T14:20:09;768.20;1177.60
55026;DHT22;40925;45.666;18.994;2023-05-07T14:22:36;768.30;1177.60
55026;DHT22;40925;45.666;18.994;2023-05-07T14:25:03;768.90;1152.00
55026;DHT22;40925;45.666;18.994;2023-05-07T14:27:28;768.80;1152.00
55026;DHT22;40925;45.666;18.994;2023-05-07T14:29:54;768.30;1152.00
55026;DHT22;40925;45.666;18.994;2023-05-07T14:32:21;768.20;1152.00
55026;DHT22;40925;45.666;18.994;2023-05-07T14:34:47;768.30;1177.60
55026;DHT22;40925;45.666;18.994;2023-05-07T14:37:13;743.30;1152.00
55026;DHT22;40925;45.666;18.994;2023-05-07T14:39:39;768.50;1152.00
55026;DHT22;40925;45.666;18.994;2023-05-07T14:42:05;768.60;1152.00
55026;DHT22;40925;45.666;18.994;2023-05-07T14:44:35;768.70;1152.00
55026;DHT22;40925;45.666;18.994;2023-05-07T14:47:01;768.50;1203.20
55026;DHT22;40925;45.666;18.994;2023-05-07T14:49:27;768.40;1177.60
55026;DHT22;40925;45.666;18.994;2023-05-07T14:51:53;768.50;1152.00
55026;DHT22;40925;45.666;18.994;2023-05-07T14:54:19;768.70;1152.00
55026;DHT22;40925;45.666;18.994;2023-05-07T14:56:45;768.10;1177.60
55026;DHT22;40925;45.666;18.994;2023-05-07T14:59:11;768.50;1203.20
55026;DHT22;40925;45.666;18.994;2023-05-07T15:01:38;768.50;1177.60
55026;DHT22;40925;45.666;18.994;2023-05-07T15:04:08;768.50;1177.60
55026;DHT22;40925;45.666;18.994;2023-05-07T15:06:34;768.50;1203.20
55026;DHT22;40925;45.666;18.994;2023-05-07T15:09:00;768.30;1203.20
55026;DHT22;40925;45.666;18.994;2023-05-07T15:11:26;768.50;1177.60
55026;DHT22;40925;45.666;18.994;2023-05-07T15:13:51;768.60;1177.60
55026;DHT22;40925;45.666;18.994;2023-05-07T15:16:17;768.50;1177.60
55026;DHT22;40925;45.666;18.994;2023-05-07T15:18:43;768.40;1177.60
55026;DHT22;40925;45.666;18.994;2023-05-07T15:21:09;768.10;1177.60
55026;DHT22;40925;45.666;18.994;2023-05-07T15:23:35;743.30;1203.20
55026;DHT22;40925;45.666;18.994;2023-05-07T15:26:01;743.20;1228.80
55026;DHT22;40925;45.666;18.994;2023-05-07T15:28:27;768.10;1203.20
55026;DHT22;40925;45.666;18.994;2023-05-07T15:30:54;768.00;1203.20
55026;DHT22;40925;45.666;18.994;2023-05-07T15:33:20;743.00;1228.80
55026;DHT22;40925;45.666;18.994;2023-05-07T15:35:46;743.00;1254.40
55026;DHT22;40925;45.666;18.994;2023-05-07T15:38:12;742.90;1254.40
55026;DHT22;40925;45.666;18.994;2023-05-07T15:40:39;742.80;1280.00
55026;DHT22;40925;45.666;18.994;2023-05-07T15:43:08;742.80;1254.40
55026;DHT22;40925;45.666;18.994;2023-05-07T15:45:39;742.90;1254.40
55026;DHT22;40925;45.666;18.994;2023-05-07T15:48:05;742.70;1280.00
55026;DHT22;40925;45.666;18.994;2023-05-07T15:50:31;742.60;1331.20
55026;DHT22;40925;45.666;18.994;2023-05-07T15:52:57;717.70;1331.20
55026;DHT22;40925;45.666;18.994;2023-05-07T15:55:23;717.40;1331.20
55026;DHT22;40925;45.666;18.994;2023-05-07T15:57:49;717.30;1356.80
55026;DHT22;40925;45.666;18.994;2023-05-07T16:00:15;717.10;1356.80
55026;DHT22;40925;45.666;18.994;2023-05-07T16:02:43;717.00;1356.80
55026;DHT22;40925;45.666;18.994;2023-05-07T16:05:08;716.80;1356.80
55026;DHT22;40925;45.666;18.994;2023-05-07T16:07:35;692.10;1356.80
55026;DHT22;40925;45.666;18.994;2023-05-07T16:10:03;691.90;1356.80
55026;DHT22;40925;45.666;18.994;2023-05-07T16:12:29;691.80;1382.40
55026;DHT22;40925;45.666;18.994;2023-05-07T16:14:55;691.60;1408.00
55026;DHT22;40925;45.666;18.994;2023-05-07T16:17:20;691.50;1433.60
55026;DHT22;40925;45.666;18.994;2023-05-07T16:19:46;691.50;1433.60
55026;DHT22;40925;45.666;18.994;2023-05-07T16:22:12;691.20;1433.60
55026;DHT22;40925;45.666;18.994;2023-05-07T16:24:37;666.50;1484.80
55026;DHT22;40925;45.666;18.994;2023-05-07T16:27:03;666.40;1510.40
55026;DHT22;40925;45.666;18.994;2023-05-07T16:29:31;666.40;1536.00
55026;DHT22;40925;45.666;18.994;2023-05-07T16:31:56;666.20;1561.60
55026;DHT22;40925;45.666;18.994;2023-05-07T16:34:22;666.20;1561.60
55026;DHT22;40925;45.666;18.994;2023-05-07T16:36:48;665.90;1561.60
55026;DHT22;40925;45.666;18.994;2023-05-07T16:39:14;665.90;1561.60
55026;DHT22;40925;45.666;18.994;2023-05-07T16:41:40;665.60;1587.20
55026;DHT22;40925;45.666;18.994;2023-05-07T16:44:06;640.80;1587.20
55026;DHT22;40925;45.666;18.994;2023-05-07T16:46:34;640.80;1587.20
55026;DHT22;40925;45.666;18.994;2023-05-07T16:49:00;640.60;1612.80
55026;DHT22;40925;45.666;18.994;2023-05-07T16:51:25;640.50;1612.80
55026;DHT22;40925;45.666;18.994;2023-05-07T16:53:52;640.40;1612.80
55026;DHT22;40925;45.666;18.994;2023-05-07T16:56:18;640.40;1612.80
55026;DHT22;40925;45.666;18.994;2023-05-07T16:58:44;640.40;1638.40
55026;DHT22;40925;45.666;18.994;2023-05-07T17:01:10;640.10;1689.60
55026;DHT22;40925;45.666;18.994;2023-05-07T17:03:36;640.00;1664.00
55026;DHT22;40925;45.666;18.994;2023-05-07T17:06:02;640.00;1689.60
55026;DHT22;40925;45.666;18.994;2023-05-07T17:08:28;615.20;1689.60
55026;DHT22;40925;45.666;18.994;2023-05-07T17:10:54;615.10;1715.20
55026;DHT22;40925;45.666;18.994;2023-05-07T17:13:19;615.10;1740.80
55026;DHT22;40925;45.666;18.994;2023-05-07T17:15:45;615.10;1766.40
55026;DHT22;40925;45.666;18.994;2023-05-07T17:18:12;615.00;1766.40
55026;DHT22;40925;45.666;18.994;2023-05-07T17:20:38;615.00;1792.00
55026;DHT22;40925;45.666;18.994;2023-05-07T17:23:06;615.00;1792.00
55026;DHT22;40925;45.666;18.994;2023-05-07T17:25:33;615.00;1792.00
55026;DHT22;40925;45.666;18.994;2023-05-07T17:28:00;614.90;1792.00
55026;DHT22;40925;45.666;18.994;2023-05-07T17:30:26;614.80;1817.60
55026;DHT22;40925;45.666;18.994;2023-05-07T17:32:51;614.80;1817.60
55026;DHT22;40925;45.666;18.994;2023-05-07T17:35:19;614.70;1817.60
55026;DHT22;40925;45.666;18.994;2023-05-07T17:37:44;614.70;1843.20
55026;DHT22;40925;45.666;18.994;2023-05-07T17:40:19;614.50;1843.20
55026;DHT22;40925;45.666;18.994;2023-05-07T17:42:47;614.50;1868.80
55026;DHT22;40925;45.666;18.994;2023-05-07T17:45:14;614.50;1894.40
55026;DHT22;40925;45.666;18.994;2023-05-07T17:47:40;614.50;1920.00
55026;DHT22;40925;45.666;18.994;2023-05-07T17:50:07;614.40;1894.40
55026;DHT22;40925;45.666;18.994;2023-05-07T17:52:36;589.70;1894.40
55026;DHT22;40925;45.666;18.994;2023-05-07T17:55:02;589.60;1920.00
55026;DHT22;40925;45.666;18.994;2023-05-07T17:57:27;589.60;1920.00
55026;DHT22;40925;45.666;18.994;2023-05-07T17:59:58;589.60;1920.00
55026;DHT22;40925;45.666;18.994;2023-05-07T18:02:24;589.50;1945.60
55026;DHT22;40925;45.666;18.994;2023-05-07T18:04:50;589.40;1971.20
55026;DHT22;40925;45.666;18.994;2023-05-07T18:07:15;589.30;1996.80
55026;DHT22;40925;45.666;18.994;2023-05-07T18:09:41;589.30;1971.20
55026;DHT22;40925;45.666;18.994;2023-05-07T18:12:07;589.40;1996.80
55026;DHT22;40925;45.666;18.994;2023-05-07T18:14:32;589.30;1996.80
55026;DHT22;40925;45.666;18.994;2023-05-07T18:16:58;589.10;2048.00
55026;DHT22;40925;45.666;18.994;2023-05-07T18:19:24;588.90;2048.00
55026;DHT22;40925;45.666;18.994;2023-05-07T18:21:50;588.90;2073.60
55026;DHT22;40925;45.666;18.994;2023-05-07T18:24:16;588.90;2099.20
55026;DHT22;40925;45.666;18.994;2023-05-07T18:26:42;588.80;2124.80
55026;DHT22;40925;45.666;18.994;2023-05-07T18:29:07;564.10;2150.40
55026;DHT22;40925;45.666;18.994;2023-05-07T18:31:33;564.10;2201.60
55026;DHT22;40925;45.666;18.994;2023-05-07T18:33:59;563.70;2329.60
55026;DHT22;40925;45.666;18.994;2023-05-07T18:36:25;563.40;2432.00
55026;DHT22;40925;45.666;18.994;2023-05-07T18:38:51;563.40;2432.00
55026;DHT22;40925;45.666;18.994;2023-05-07T18:41:17;563.40;2432.00
55026;DHT22;40925;45.666;18.994;2023-05-07T18:43:43;563.50;2432.00
55026;DHT22;40925;45.666;18.994;2023-05-07T18:46:09;563.50;2432.00
55026;DHT22;40925;45.666;18.994;2023-05-07T18:48:35;563.60;2432.00
55026;DHT22;40925;45.666;18.994;2023-05-07T18:51:01;563.50;2432.00
55026;DHT22;40925;45.666;18.994;2023-05-07T18:53:27;563.50;2432.00
55026;DHT22;40925;45.666;18.994;2023-05-07T18:55:53;563.50;2432.00
55026;DHT22;40925;45.666;18.994;2023-05-07T18:58:19;563.30;2432.00
55026;DHT22;40925;45.666;18.994;2023-05-07T19:00:48;563.30;2432.00
55026;DHT22;40925;45.666;18.994;2023-05-07T19:03:14;563.30;2432.00
55026;DHT22;40925;45.666;18.994;2023-05-07T19:05:41;563.20;2432.00
55026;DHT22;40925;45.666;18.994;2023-05-07T19:08:07;538.30;2406.40
55026;DHT22;40925;45.666;18.994;2023-05-07T19:10:33;537.70;2406.40
55026;DHT22;40925;45.666;18.994;2023-05-07T19:12:59;537.70;2406.40
55026;DHT22;40925;45.666;18.994;2023-05-07T19:15:25;537.90;2406.40